AirNav  
 
 551 users online  

RC0 Rock Creek Airport
Clinton, Montana, USA

GOING TO CLINTON?


FAA INFORMATION EFFECTIVE 25 FEBRUARY 2021

Location

FAA Identifier: RC0
Lat/Long: 46-43-37.7370N 113-39-27.3360W
46-43.628950N 113-39.455600W
46.7271492,-113.6575933
(estimated)
Elevation: 3547 ft. / 1081 m (estimated)
Variation: 18E (1985)
From city: 3 miles SE of CLINTON, MT
Time zone: UTC -7 (UTC -6 during Daylight Saving Time)
Zip code: 59825

Airport Operations

Airport use: Open to the public
Activation date: 12/1958
Control tower: no
ARTCC: SALT LAKE CITY CENTER
FSS: GREAT FALLS FLIGHT SERVICE STATION
NOTAMs facility: GTF (NOTAM-D service available)
Attendance: UNATNDD
Wind indicator: yes
Segmented circle: no

Airport Communications

CTAF: 122.9

Nearby radio navigation aids

VOR radial/distance  VOR name  Freq  Var
MSOr109/20.6MISSOULA VOR/DME112.8013E

Airport Services

Parking: tiedowns
Airframe service: NONE
Powerplant service: NONE
Bottled oxygen: NONE
Bulk oxygen: NONE

Runway Information

Runway 7/25

Dimensions: 4100 x 75 ft. / 1250 x 23 m
Surface: turf, in poor condition
TALL WEEDS AND CLUMP GRASS FULL LENGTH OF RUNWAY.
Operational restrictions: WHITE CONES FULL LENGTH OF RY.
RUNWAY 7  RUNWAY 25
Traffic pattern: rightright
Markings: NSTDNSTD
Obstructions: 90 ft. hill, 915 ft. from runway, 20 ft. right of centerline, 10:1 slope to clear
RWY 07 +55 FT SIGN ON RWY CNTRLN EXTD 915 FT FM THLD.
72 ft. trees, 285 ft. from runway, 81 ft. left of centerline, 4:1 slope to clear

Airport Ownership and Management from official FAA records

Ownership: Publicly-owned
Owner: MONTANA AERONAUTICS DIVISION
PO BOX 200507
HELENA, MT 59620-0507
Phone 406-444-2506
Manager: TIM CONWAY
PO BOX 200507
HELENA, MT 59620-0507
Phone 406-444-2506

Airport Operational Statistics

Aircraft based on the field: 1
Single engine airplanes: 1
    
Aircraft operations: avg 37/month *
79% transient general aviation
17% local general aviation
4% military
* for 12-month period ending 28 June 2019

Additional Remarks

SNOW REMOVAL IRREGULAR.
PLINE CROSSING 1.3 NM S OF ARPT (605 FT AGL) 4152 FT MSL.
TREES & TRRN IN TRANSITION SFC BOTH SIDES OF RY.
FOR CD CTC SPOKANE APCH AT 509-742-2522, WHEN APCH CLSD CTC SALT LAKE ARTCC AT 801-320-2568

Instrument Procedures

There are no published instrument procedures at RC0.

Some nearby airports with instrument procedures:

32S - Stevensville Airport (20 nm SW)
KMSO - Missoula International Airport (21 nm NW)
6S5 - Ravalli County Airport (34 nm SW)
38S - Deer Lodge-City-County Airport (42 nm SE)
3U3 - Bowman Field Airport (47 nm SE)
 
Loc | Ops | Rwys | IFR | FBO | Links
Com | Nav | Svcs | Stats | Notes
Area around RC0 (Rock Creek Airport)
 
Road maps at: MapQuest Bing Google
 
Aerial photo
WARNING: Photo may not be current or correct
Aerial photo of RC0 (Rock Creek Airport)
Photo by P.J. Reinders
Taken in September 2008

Do you have a better or more recent aerial photo of Rock Creek Airport that you would like to share? If so, please send us your photo.

 
Sectional chart

 
Airport distance calculator
Flying to Rock Creek Airport? Find the distance to fly.

From to RC0

Sunrise and sunset
Times for 08-Mar-2021
 Local
(UTC-7)
 Zulu
(UTC)
Morning civil twilight06:3213:32
Sunrise07:0214:02
Sunset18:2901:29
Evening civil twilight18:5901:59

Current date and time
Zulu (UTC)  08-Mar-2021 12:26:13
Local (UTC-7)  08-Mar-2021 05:26:13
 
METAR
KMSO 
21nm NW 
081153Z AUTO 29003KT 10SM SCT070 M01/M04 A3008 RMK AO2 SLP208 T10111044 10028 21017 58012
K6S5 
34nm SW 
081210Z AUTO 10004KT 10SM BKN048 OVC075 M01/M04 A3006 RMK AO2 Hamilton
K38S 
42nm SE 
081215Z AUTO 01003KT 10SM M03/M05 A3009
TAF
KMSO 
21nm NW 
081120Z 0812/0912 00000KT P6SM OVC070 FM081500 35004KT P6SM VCSH BKN045 OVC060 FM082000 03006KT 5SM -SHRASN BKN025 OVC040 FM082300 35010KT 3SM -SHRASN BKN025 OVC040 FM090600 08008KT P6SM OVC040
NOTAMs
Click for the latest NOTAMs
NOTAMs are issued by the DoD/FAA and will open in a separate window not controlled by AirNav.

 

 
 

Would you like to see your business listed on this page?

 If your business provides an interesting product or service to pilots, flight crews, aircraft, or users of the Rock Creek Airport, you should consider listing it here.  To start the listing process, click on the button below
 
Add a business
 

Other Pages about Rock Creek Airport

Update a link
 
Copyright © AirNav, LLC. All rights reserved. Privacy Policy  Contact